Terminal Aerodrome Forecast
Issued by NWS Albuquerque, NM

Home | Current Version | Previous Version | Text Only | Print | Product List | Glossary On
Versions: 1 2 3 4 5 6 7 8 9 10 11 12 13
958
FTUS45 KABQ 191732
TAFABQ
TAF
KABQ 191732Z 1918/2018 20005KT P6SM BKN250
     FM200200 13005KT P6SM BKN250
     FM201600 16008KT P6SM FEW060 SCT120=

USA.gov is the U.S. government's official web portal to all federal, state and local government web resources and services.